Time;durP1;ratioP1;P1;durP2;ratioP2;P2;SDS_P1;SDS_P2;PMS_P1;PMS_P2;Temp;Humidity;BMP_temperature;BMP_pressure;BME280_temperature;BME280_humidity;BME280_pressure;Samples;Min_cycle;Max_cycle;Signal;HPM_P1;HPM_P2
2024/03/30 00:01:15;;;;;;;0.10;0.10;;;20.00;46.60;;;;;;5011949;28;20236;-46
2024/03/30 00:03:45;;;;;;;0.10;0.10;;;20.00;46.60;;;;;;5011737;28;20197;-45
2024/03/30 00:06:18;;;;;;;0.00;0.00;;;20.10;46.70;;;;;;5011370;28;20209;-45
2024/03/30 00:08:47;;;;;;;0.00;0.00;;;20.10;46.70;;;;;;5007938;28;20573;-45
2024/03/30 00:11:18;;;;;;;0.05;0.05;;;20.10;46.70;;;;;;5011238;28;20665;-45
2024/03/30 00:13:47;;;;;;;0.00;0.00;;;20.10;46.70;;;;;;5011465;28;20661;-45
2024/03/30 00:16:18;;;;;;;0.10;0.10;;;20.10;46.70;;;;;;5011734;28;20200;-47
2024/03/30 00:18:47;;;;;;;0.00;0.00;;;20.10;46.70;;;;;;5011826;28;20193;-46
2024/03/30 00:21:19;;;;;;;0.10;0.10;;;20.10;46.60;;;;;;5011721;28;20197;-45
2024/03/30 00:23:49;;;;;;;0.05;0.05;;;20.10;46.60;;;;;;5011475;28;20196;-45
2024/03/30 00:26:19;;;;;;;0.10;0.10;;;20.10;46.70;;;;;;5011289;28;20200;-47
2024/03/30 00:28:49;;;;;;;0.10;0.10;;;20.10;46.60;;;;;;5011243;28;20193;-45
2024/03/30 00:31:23;;;;;;;0.10;0.10;;;20.10;46.70;;;;;;5011532;28;20193;-46
2024/03/30 00:33:52;;;;;;;0.10;0.10;;;20.10;46.70;;;;;;5011479;28;20199;-47
2024/03/30 00:36:25;;;;;;;0.05;0.05;;;20.10;46.80;;;;;;5011597;28;20205;-46
2024/03/30 00:38:54;;;;;;;0.00;0.00;;;20.10;46.70;;;;;;5011421;28;20209;-49
2024/03/30 00:41:24;;;;;;;0.00;0.00;;;20.10;46.70;;;;;;5011523;28;20200;-45
2024/03/30 00:43:54;;;;;;;0.10;0.10;;;20.10;46.80;;;;;;5011520;28;20649;-44
2024/03/30 00:46:25;;;;;;;0.10;0.10;;;20.20;46.80;;;;;;5011742;28;20208;-44
2024/03/30 00:48:54;;;;;;;0.00;0.00;;;20.10;46.70;;;;;;5011299;28;20192;-44
2024/03/30 00:51:26;;;;;;;0.00;0.00;;;20.10;46.70;;;;;;5010399;28;20193;-45
2024/03/30 00:53:55;;;;;;;0.10;0.10;;;20.10;46.80;;;;;;5011027;28;20208;-44
2024/03/30 00:56:29;;;;;;;0.00;0.00;;;20.20;46.80;;;;;;5009217;28;20294;-45
2024/03/30 00:59:01;;;;;;;0.10;0.10;;;20.20;46.80;;;;;;5011101;28;20558;-44
2024/03/30 01:01:31;;;;;;;0.10;0.10;;;20.20;46.90;;;;;;5010920;28;20362;-47
2024/03/30 01:04:00;;;;;;;0.00;0.00;;;20.20;46.80;;;;;;5010569;28;20189;-45
2024/03/30 01:06:33;;;;;;;0.00;0.00;;;20.20;46.80;;;;;;5007805;28;20224;-44
2024/03/30 01:09:02;;;;;;;0.10;0.10;;;20.20;46.90;;;;;;5011510;28;20208;-46
2024/03/30 01:11:33;;;;;;;0.08;0.08;;;20.20;46.90;;;;;;5011186;28;20197;-45
2024/03/30 01:14:03;;;;;;;0.05;0.05;;;20.20;46.90;;;;;;5011215;28;20216;-45
2024/03/30 01:16:34;;;;;;;0.00;0.00;;;20.20;46.80;;;;;;5011794;28;20207;-45
2024/03/30 01:19:03;;;;;;;0.00;0.00;;;20.20;46.80;;;;;;5014567;28;20199;-46
2024/03/30 01:21:36;;;;;;;0.00;0.00;;;20.20;46.80;;;;;;5014910;28;20243;-45
2024/03/30 01:24:06;;;;;;;0.10;0.10;;;20.20;46.80;;;;;;5014349;28;20252;-46
2024/03/30 01:26:42;;;;;;;0.10;0.10;;;20.30;46.80;;;;;;5002055;28;20204;-47
2024/03/30 01:29:13;;;;;;;0.10;0.10;;;20.30;46.80;;;;;;4994610;28;20194;-45
2024/03/30 01:31:44;;;;;;;0.03;0.03;;;20.30;46.90;;;;;;4994783;28;20221;-46
2024/03/30 01:34:13;;;;;;;0.10;0.10;;;20.30;46.90;;;;;;5012866;28;20675;-47
2024/03/30 01:36:45;;;;;;;0.10;0.10;;;20.30;47.00;;;;;;5014307;28;20513;-45
2024/03/30 01:39:15;;;;;;;0.00;0.00;;;20.30;47.00;;;;;;5014443;28;20247;-46
2024/03/30 01:41:45;;;;;;;0.13;0.13;;;20.30;47.10;;;;;;5014355;28;20197;-46
2024/03/30 01:44:15;;;;;;;0.03;0.03;;;20.30;47.00;;;;;;5014503;28;20266;-45
2024/03/30 01:46:46;;;;;;;0.10;0.10;;;20.40;47.00;;;;;;5014260;28;20430;-48
2024/03/30 01:49:16;;;;;;;0.10;0.10;;;20.40;46.90;;;;;;5014292;28;20221;-47
2024/03/30 01:51:49;;;;;;;0.00;0.00;;;20.40;46.90;;;;;;5013802;28;20602;-45
2024/03/30 01:54:20;;;;;;;0.10;0.10;;;20.40;46.90;;;;;;5013777;28;20201;-45
2024/03/30 01:56:53;;;;;;;0.10;0.10;;;20.40;46.80;;;;;;5013616;28;20220;-44
2024/03/30 01:59:23;;;;;;;0.00;0.00;;;20.40;46.90;;;;;;5013628;28;20201;-46
2024/03/30 02:01:55;;;;;;;0.10;0.10;;;20.40;47.00;;;;;;5013622;28;20612;-45
2024/03/30 02:04:25;;;;;;;0.10;0.10;;;20.40;47.10;;;;;;5013214;28;20209;-46
2024/03/30 02:06:58;;;;;;;0.00;0.00;;;20.40;47.10;;;;;;5013157;28;20299;-45
2024/03/30 02:09:27;;;;;;;0.03;0.03;;;20.40;47.10;;;;;;5013576;28;20197;-48
2024/03/30 02:11:58;;;;;;;0.00;0.00;;;20.40;47.10;;;;;;5013448;28;20223;-50
2024/03/30 02:14:27;;;;;;;0.10;0.10;;;20.40;47.10;;;;;;5013804;28;20657;-48
2024/03/30 02:16:58;;;;;;;0.00;0.00;;;20.50;47.00;;;;;;5013460;28;20216;-48
2024/03/30 02:19:28;;;;;;;0.10;0.10;;;20.50;47.00;;;;;;5011257;28;20197;-51
2024/03/30 02:22:00;;;;;;;0.10;0.10;;;20.50;47.10;;;;;;5013714;28;20200;-47
2024/03/30 02:24:31;;;;;;;0.10;0.10;;;20.50;47.10;;;;;;5013572;28;20201;-49
2024/03/30 02:27:02;;;;;;;0.00;0.00;;;20.50;47.10;;;;;;5001834;28;20213;-48
2024/03/30 02:29:33;;;;;;;0.00;0.00;;;20.50;47.00;;;;;;5005832;28;20211;-50
2024/03/30 02:32:05;;;;;;;0.10;0.10;;;20.50;47.60;;;;;;5010117;28;20660;-53
2024/03/30 02:34:34;;;;;;;0.00;0.00;;;20.50;47.00;;;;;;5009820;28;20247;-48
2024/03/30 02:37:05;;;;;;;0.08;0.08;;;20.50;47.00;;;;;;5010288;28;20289;-48
2024/03/30 02:39:36;;;;;;;0.00;0.00;;;20.50;46.90;;;;;;5009375;28;20197;-48
2024/03/30 02:42:07;;;;;;;0.00;0.00;;;20.50;47.00;;;;;;4990120;28;20560;-45
2024/03/30 02:44:36;;;;;;;0.00;0.00;;;20.50;47.00;;;;;;4989745;28;20688;-51
2024/03/30 02:47:07;;;;;;;0.00;0.00;;;20.50;47.00;;;;;;5007985;28;20228;-49
2024/03/30 02:49:36;;;;;;;0.00;0.00;;;20.50;47.00;;;;;;5009344;28;20200;-48
2024/03/30 02:52:07;;;;;;;0.00;0.00;;;20.50;47.00;;;;;;5006922;28;20217;-49
2024/03/30 02:54:38;;;;;;;0.10;0.10;;;20.50;47.10;;;;;;5002357;28;20212;-48
2024/03/30 02:57:09;;;;;;;0.00;0.00;;;20.50;47.00;;;;;;5005980;28;20696;-49
2024/03/30 02:59:38;;;;;;;0.10;0.10;;;20.50;47.00;;;;;;5009633;28;20665;-45
2024/03/30 03:02:09;;;;;;;0.00;0.00;;;20.50;47.60;;;;;;5008614;28;20716;-51
2024/03/30 03:04:38;;;;;;;0.10;0.10;;;20.60;47.00;;;;;;5009327;28;20205;-46
2024/03/30 03:07:09;;;;;;;0.00;0.00;;;20.50;47.00;;;;;;5008375;28;20224;-50
2024/03/30 03:09:42;;;;;;;0.00;0.00;;;20.60;47.00;;;;;;5008828;28;20201;-49
2024/03/30 03:12:11;;;;;;;0.00;0.00;;;20.60;47.00;;;;;;5008919;28;20231;-49
2024/03/30 03:14:42;;;;;;;0.00;0.00;;;20.60;47.00;;;;;;5008637;28;20205;-50
2024/03/30 03:17:11;;;;;;;0.00;0.00;;;20.60;47.00;;;;;;5008832;28;20220;-46
2024/03/30 03:19:41;;;;;;;0.10;0.10;;;20.60;47.00;;;;;;5008552;28;20223;-44
2024/03/30 03:22:10;;;;;;;0.00;0.00;;;20.60;46.90;;;;;;5008639;28;20200;-47
2024/03/30 03:24:43;;;;;;;0.05;0.05;;;20.60;46.90;;;;;;5023104;22;20243;-46
2024/03/30 03:27:12;;;;;;;0.00;0.00;;;20.60;47.00;;;;;;5027961;28;20220;-46
2024/03/30 03:29:43;;;;;;;0.00;0.00;;;20.60;46.90;;;;;;5027621;28;20392;-46
2024/03/30 03:32:12;;;;;;;0.00;0.00;;;20.60;47.00;;;;;;5026673;28;20654;-47
2024/03/30 03:34:42;;;;;;;0.10;0.10;;;20.60;47.00;;;;;;5008640;28;20204;-47
2024/03/30 03:37:11;;;;;;;0.00;0.00;;;20.60;47.00;;;;;;5008213;28;20287;-45
2024/03/30 03:39:44;;;;;;;0.08;0.08;;;20.60;47.00;;;;;;5007193;28;20209;-46
2024/03/30 03:42:13;;;;;;;0.00;0.00;;;20.60;47.00;;;;;;5008358;28;20204;-49
2024/03/30 03:44:44;;;;;;;0.00;0.00;;;20.60;47.00;;;;;;5008685;28;20204;-47
2024/03/30 03:47:13;;;;;;;0.00;0.00;;;20.60;47.00;;;;;;5015547;28;20212;-48
2024/03/30 03:49:43;;;;;;;0.00;0.00;;;20.60;47.30;;;;;;5028030;28;20196;-47
2024/03/30 03:52:13;;;;;;;0.00;0.00;;;20.60;47.00;;;;;;5027265;28;20724;-48
2024/03/30 03:54:45;;;;;;;0.10;0.10;;;20.60;47.00;;;;;;5027132;28;20215;-47
2024/03/30 03:57:14;;;;;;;0.10;0.10;;;20.60;47.00;;;;;;5027560;28;20219;-47
2024/03/30 03:59:45;;;;;;;0.10;0.10;;;20.60;47.00;;;;;;5027659;28;20203;-47
2024/03/30 04:02:14;;;;;;;0.08;0.08;;;20.60;47.00;;;;;;5026574;28;20746;-47
2024/03/30 04:04:45;;;;;;;0.10;0.10;;;20.60;47.00;;;;;;5027532;28;20211;-48
2024/03/30 04:07:14;;;;;;;0.08;0.08;;;20.60;47.00;;;;;;5027408;28;20231;-46
2024/03/30 04:09:46;;;;;;;0.00;0.00;;;20.60;47.00;;;;;;5027952;28;20746;-47
2024/03/30 04:12:15;;;;;;;0.00;0.00;;;20.60;47.60;;;;;;5027926;28;20227;-49
2024/03/30 04:14:46;;;;;;;0.00;0.00;;;20.60;47.10;;;;;;5027528;28;20664;-46
2024/03/30 04:17:15;;;;;;;0.00;0.00;;;20.60;47.10;;;;;;5025955;28;20259;-48
2024/03/30 04:19:46;;;;;;;0.00;0.00;;;20.60;47.10;;;;;;5027298;28;20754;-47
2024/03/30 04:22:15;;;;;;;0.00;0.00;;;20.60;47.10;;;;;;5027633;28;20246;-46
2024/03/30 04:24:47;;;;;;;0.00;0.00;;;20.60;47.10;;;;;;5027835;28;20258;-46
2024/03/30 04:27:17;;;;;;;0.00;0.00;;;20.60;47.10;;;;;;5026762;28;20215;-47
2024/03/30 04:29:47;;;;;;;0.10;0.10;;;20.60;47.10;;;;;;5027909;28;20395;-45
2024/03/30 04:32:16;;;;;;;0.10;0.10;;;20.60;47.10;;;;;;5026317;28;20223;-47
2024/03/30 04:34:47;;;;;;;0.10;0.10;;;20.60;47.10;;;;;;5027766;28;20382;-46
2024/03/30 04:37:18;;;;;;;0.10;0.10;;;20.60;47.20;;;;;;5026624;28;20228;-47
2024/03/30 04:39:53;;;;;;;0.10;0.10;;;20.60;47.10;;;;;;5027263;28;20200;-47
2024/03/30 04:42:22;;;;;;;0.00;0.00;;;20.60;47.10;;;;;;5029859;28;20573;-46
2024/03/30 04:44:53;;;;;;;0.10;0.10;;;20.60;47.10;;;;;;5030680;28;20193;-46
2024/03/30 04:47:22;;;;;;;0.00;0.00;;;20.60;47.10;;;;;;5028742;28;20814;-46
2024/03/30 04:49:52;;;;;;;0.00;0.00;;;20.60;47.10;;;;;;5030766;28;20196;-46
2024/03/30 04:52:21;;;;;;;0.00;0.00;;;20.60;47.10;;;;;;5034286;28;20224;-46
2024/03/30 04:54:54;;;;;;;0.10;0.10;;;20.60;47.20;;;;;;5034253;28;20211;-47
2024/03/30 04:57:23;;;;;;;0.00;0.00;;;20.60;47.30;;;;;;5034309;28;20216;-47
2024/03/30 04:59:54;;;;;;;0.00;0.00;;;20.60;47.30;;;;;;5034857;28;20652;-49
2024/03/30 05:02:23;;;;;;;0.08;0.08;;;20.60;47.20;;;;;;5033650;28;20203;-47
2024/03/30 05:04:54;;;;;;;0.10;0.10;;;20.60;47.20;;;;;;5034866;28;20228;-46
2024/03/30 05:07:23;;;;;;;0.00;0.00;;;20.60;47.30;;;;;;5034699;28;20278;-46
2024/03/30 05:09:55;;;;;;;0.10;0.10;;;20.60;47.30;;;;;;5034564;28;20196;-46
2024/03/30 05:12:24;;;;;;;0.00;0.00;;;20.60;47.30;;;;;;5034343;28;20204;-48
2024/03/30 05:14:55;;;;;;;0.00;0.00;;;20.60;47.30;;;;;;5034227;28;20189;-46
2024/03/30 05:17:24;;;;;;;0.05;0.05;;;20.60;47.30;;;;;;5033741;28;20212;-47
2024/03/30 05:22:42;;;;;;;0.03;0.03;;;20.60;47.40;;;;;;5034542;28;20207;-45
2024/03/30 05:25:14;;;;;;;0.05;0.05;;;20.60;47.40;;;;;;5038831;22;20708;-46
2024/03/30 05:27:43;;;;;;;0.10;0.10;;;20.60;47.40;;;;;;5013769;28;20216;-47
2024/03/30 05:30:14;;;;;;;0.05;0.05;;;20.50;47.30;;;;;;5013855;28;20201;-49
2024/03/30 05:32:43;;;;;;;0.00;0.00;;;20.60;47.30;;;;;;5013819;28;20247;-47
2024/03/30 05:35:14;;;;;;;0.00;0.00;;;20.60;47.40;;;;;;5014198;28;20193;-48
2024/03/30 05:37:44;;;;;;;0.10;0.10;;;20.60;47.40;;;;;;5013787;28;20267;-48
2024/03/30 05:40:16;;;;;;;0.05;0.05;;;20.60;47.50;;;;;;5014548;28;20201;-48
2024/03/30 05:42:46;;;;;;;0.00;0.00;;;20.50;47.40;;;;;;5013208;28;20208;-46
2024/03/30 05:45:16;;;;;;;0.00;0.00;;;20.60;47.50;;;;;;5013472;28;20683;-45
2024/03/30 05:47:45;;;;;;;0.10;0.10;;;20.60;47.60;;;;;;5013003;28;20228;-49
2024/03/30 05:50:17;;;;;;;0.00;0.00;;;20.50;47.60;;;;;;5013393;28;20197;-45
2024/03/30 05:52:47;;;;;;;0.00;0.00;;;20.60;47.70;;;;;;5013604;28;20225;-45
2024/03/30 05:55:19;;;;;;;0.00;0.00;;;20.60;47.80;;;;;;5024989;28;20335;-45
2024/03/30 05:57:48;;;;;;;0.00;0.00;;;20.50;47.90;;;;;;5033697;28;20688;-46
2024/03/30 06:00:19;;;;;;;0.10;0.10;;;20.50;47.90;;;;;;5032817;28;20223;-46
2024/03/30 06:02:48;;;;;;;0.10;0.10;;;20.50;47.90;;;;;;5032190;28;20192;-47
2024/03/30 06:05:19;;;;;;;0.00;0.00;;;20.50;48.00;;;;;;5033148;28;20200;-46
2024/03/30 06:07:48;;;;;;;0.10;0.10;;;20.50;48.00;;;;;;5033032;28;20216;-46
2024/03/30 06:10:21;;;;;;;0.05;0.05;;;20.50;48.00;;;;;;5033402;28;20590;-47
2024/03/30 06:12:50;;;;;;;0.00;0.00;;;20.50;48.10;;;;;;5033127;28;20300;-46
2024/03/30 06:15:21;;;;;;;0.10;0.10;;;20.50;48.20;;;;;;5032916;28;20231;-48
2024/03/30 06:17:50;;;;;;;0.00;0.00;;;20.50;48.20;;;;;;5014715;28;20228;-47
2024/03/30 06:20:20;;;;;;;0.10;0.10;;;20.50;48.20;;;;;;5013012;28;20197;-47
2024/03/30 06:22:50;;;;;;;0.00;0.00;;;20.50;48.30;;;;;;5011687;28;20235;-49
2024/03/30 06:25:22;;;;;;;0.00;0.00;;;20.50;48.30;;;;;;5023964;28;20676;-46
2024/03/30 06:27:51;;;;;;;0.00;0.00;;;20.50;48.30;;;;;;5033043;28;20216;-47
2024/03/30 06:30:22;;;;;;;0.00;0.00;;;20.50;48.30;;;;;;5017167;28;20255;-46
2024/03/30 06:32:52;;;;;;;0.10;0.10;;;20.50;48.30;;;;;;5013048;28;20220;-46
2024/03/30 06:35:23;;;;;;;0.00;0.00;;;20.50;48.30;;;;;;5013300;28;20563;-45
2024/03/30 06:37:52;;;;;;;0.00;0.00;;;20.50;48.40;;;;;;5012524;28;20231;-48
2024/03/30 06:45:57;;;;;;;0.00;0.00;;;20.50;48.30;;;;;;5012730;28;20196;-48
2024/03/30 06:48:28;;;;;;;0.10;0.10;;;20.50;48.30;;;;;;5012918;28;20263;-48
2024/03/30 06:50:58;;;;;;;0.00;0.00;;;20.50;48.40;;;;;;5013011;28;20684;-48
2024/03/30 06:53:28;;;;;;;0.08;0.08;;;20.50;48.40;;;;;;5012601;28;20446;-46
2024/03/30 06:56:00;;;;;;;0.00;0.00;;;20.40;48.40;;;;;;5028866;28;20253;-46
2024/03/30 06:58:29;;;;;;;0.00;0.00;;;20.40;48.40;;;;;;5032807;28;20274;-46
2024/03/30 07:01:00;;;;;;;0.00;0.00;;;20.40;48.40;;;;;;5031906;28;20207;-48
2024/03/30 07:03:29;;;;;;;0.00;0.00;;;20.40;48.50;;;;;;5032052;28;20291;-49
2024/03/30 07:06:00;;;;;;;0.00;0.00;;;20.40;48.50;;;;;;5032342;28;20199;-47
2024/03/30 07:08:29;;;;;;;0.00;0.00;;;20.40;48.40;;;;;;5031842;28;20220;-47
2024/03/30 07:11:02;;;;;;;0.10;0.10;;;20.40;48.40;;;;;;5031742;28;20199;-48
2024/03/30 07:13:31;;;;;;;0.03;0.03;;;20.40;48.40;;;;;;5031234;28;20224;-47
2024/03/30 07:16:01;;;;;;;0.00;0.00;;;20.40;48.30;;;;;;5031331;28;20227;-47
2024/03/30 07:18:31;;;;;;;0.00;0.00;;;20.40;48.40;;;;;;5032489;28;20215;-48
2024/03/30 07:21:01;;;;;;;0.10;0.10;;;20.40;48.40;;;;;;5032168;28;20207;-49
2024/03/30 07:23:30;;;;;;;0.00;0.00;;;20.40;48.40;;;;;;5031779;28;20200;-47
2024/03/30 07:26:05;;;;;;;0.00;0.00;;;20.40;48.40;;;;;;5032290;28;20208;-48
2024/03/30 07:28:35;;;;;;;0.00;0.00;;;20.40;48.40;;;;;;5023319;28;20220;-47
2024/03/30 07:31:09;;;;;;;0.10;0.10;;;20.40;48.30;;;;;;5011236;28;20197;-47
2024/03/30 07:33:38;;;;;;;0.03;0.03;;;20.40;48.30;;;;;;5012434;28;20770;-48
2024/03/30 07:36:09;;;;;;;0.00;0.00;;;20.40;48.30;;;;;;5012282;28;20610;-49
2024/03/30 07:38:40;;;;;;;0.10;0.10;;;20.40;48.30;;;;;;5012232;28;20217;-48
2024/03/30 07:41:12;;;;;;;0.00;0.00;;;20.40;48.30;;;;;;5012006;28;20200;-47
2024/03/30 07:43:41;;;;;;;0.00;0.00;;;20.40;48.30;;;;;;5011629;28;20224;-48
2024/03/30 07:46:12;;;;;;;0.10;0.10;;;20.40;48.20;;;;;;5010989;28;20205;-46
2024/03/30 07:48:41;;;;;;;0.05;0.05;;;20.30;48.20;;;;;;5012082;28;20227;-46
2024/03/30 07:51:12;;;;;;;0.00;0.00;;;20.30;48.20;;;;;;5011784;28;20204;-47
2024/03/30 07:53:41;;;;;;;0.00;0.00;;;20.30;48.10;;;;;;5011794;28;20656;-49
2024/03/30 07:56:13;;;;;;;0.00;0.00;;;20.40;48.10;;;;;;5031006;28;20200;-48
2024/03/30 07:58:43;;;;;;;0.00;0.00;;;20.30;48.10;;;;;;5032049;28;20200;-47
2024/03/30 08:01:13;;;;;;;0.05;0.05;;;20.30;48.10;;;;;;5031145;28;20328;-46
2024/03/30 08:03:42;;;;;;;0.10;0.10;;;20.40;48.10;;;;;;5030567;28;20204;-47
2024/03/30 08:06:13;;;;;;;0.00;0.00;;;20.30;48.00;;;;;;5031438;28;20196;-46
2024/03/30 08:08:42;;;;;;;0.03;0.03;;;20.30;48.40;;;;;;5005085;28;20211;-48
2024/03/30 08:11:15;;;;;;;0.10;0.10;;;20.40;49.20;;;;;;4987644;28;20197;-46
2024/03/30 08:13:44;;;;;;;0.10;0.10;;;20.40;49.60;;;;;;4995044;28;20696;-48
2024/03/30 08:16:14;;;;;;;0.10;0.10;;;20.40;49.60;;;;;;5005883;28;20236;-46
2024/03/30 08:18:44;;;;;;;0.00;0.00;;;20.50;49.60;;;;;;5006852;28;20201;-46
2024/03/30 08:21:15;;;;;;;0.03;0.03;;;20.50;49.50;;;;;;5007549;28;20541;-46
2024/03/30 08:23:44;;;;;;;0.10;0.10;;;20.60;49.50;;;;;;5007389;28;20212;-47
2024/03/30 08:26:16;;;;;;;0.10;0.10;;;20.60;49.40;;;;;;5017164;28;20846;-46
2024/03/30 08:28:48;;;;;;;0.00;0.00;;;20.60;49.30;;;;;;5012085;28;20200;-47
2024/03/30 08:31:19;;;;;;;0.00;0.00;;;20.70;49.30;;;;;;5011199;28;20246;-46
2024/03/30 08:33:50;;;;;;;0.08;0.08;;;20.70;49.20;;;;;;5010985;28;20224;-46
2024/03/30 08:36:20;;;;;;;0.10;0.10;;;20.70;49.20;;;;;;5010907;28;20201;-46
2024/03/30 08:38:49;;;;;;;0.00;0.00;;;20.80;49.20;;;;;;5010925;28;20209;-47
2024/03/30 08:41:22;;;;;;;0.00;0.00;;;20.80;49.10;;;;;;5011799;28;20741;-46
2024/03/30 08:43:51;;;;;;;0.10;0.10;;;20.80;49.00;;;;;;5011216;28;20201;-46
2024/03/30 08:46:22;;;;;;;0.10;0.10;;;20.80;48.90;;;;;;5012106;28;20196;-46
2024/03/30 08:48:51;;;;;;;0.03;0.03;;;20.80;48.90;;;;;;5010559;28;20288;-48
2024/03/30 08:51:21;;;;;;;0.00;0.00;;;20.90;48.90;;;;;;5011633;28;20668;-46
2024/03/30 08:53:51;;;;;;;0.10;0.10;;;20.80;48.80;;;;;;5011876;28;20232;-49
2024/03/30 08:56:23;;;;;;;0.00;0.00;;;20.90;48.80;;;;;;5011810;28;20209;-47
2024/03/30 08:58:52;;;;;;;0.00;0.00;;;20.90;48.70;;;;;;5012387;28;20251;-47
2024/03/30 09:01:23;;;;;;;0.10;0.10;;;20.90;48.60;;;;;;5010814;28;20252;-48
2024/03/30 09:03:52;;;;;;;0.00;0.00;;;20.90;48.60;;;;;;4992006;28;20209;-46
2024/03/30 09:06:23;;;;;;;0.08;0.08;;;20.90;48.60;;;;;;4991129;28;20637;-47
2024/03/30 09:08:52;;;;;;;0.08;0.08;;;20.90;48.60;;;;;;4991166;28;20540;-48
2024/03/30 09:11:25;;;;;;;0.03;0.03;;;20.90;48.50;;;;;;4991462;28;20514;-46
2024/03/30 09:13:54;;;;;;;0.00;0.00;;;20.90;48.50;;;;;;4990998;28;20593;-46
2024/03/30 09:16:24;;;;;;;0.00;0.00;;;20.90;48.50;;;;;;5004268;28;20196;-46
2024/03/30 09:18:53;;;;;;;0.10;0.10;;;20.90;48.40;;;;;;5010692;28;20205;-49
2024/03/30 09:21:24;;;;;;;0.10;0.10;;;20.90;48.40;;;;;;5010393;28;20201;-48
2024/03/30 09:23:53;;;;;;;0.00;0.00;;;20.90;48.40;;;;;;5010495;28;20218;-46
2024/03/30 09:26:26;;;;;;;0.00;0.00;;;20.90;48.30;;;;;;5030642;28;20215;-45
2024/03/30 09:28:55;;;;;;;0.00;0.00;;;20.90;48.30;;;;;;5012784;28;20205;-47
2024/03/30 09:31:26;;;;;;;0.08;0.08;;;20.90;48.20;;;;;;5011087;28;20204;-47
2024/03/30 09:33:55;;;;;;;0.00;0.00;;;20.80;48.20;;;;;;5011206;28;20236;-47
2024/03/30 09:36:25;;;;;;;0.00;0.00;;;20.90;48.20;;;;;;5010659;28;20514;-47
2024/03/30 09:38:55;;;;;;;0.00;0.00;;;20.80;48.10;;;;;;5010023;28;20204;-46
2024/03/30 09:41:32;;;;;;;0.00;0.00;;;20.90;48.10;;;;;;5010046;28;20200;-47
2024/03/30 09:44:04;;;;;;;0.00;0.00;;;20.80;48.10;;;;;;5010197;28;20199;-47
2024/03/30 09:46:35;;;;;;;0.00;0.00;;;20.90;48.10;;;;;;5010475;28;20210;-47
2024/03/30 09:49:06;;;;;;;0.10;0.10;;;20.80;48.10;;;;;;5010930;28;20697;-48
2024/03/30 09:51:38;;;;;;;0.08;0.08;;;20.80;48.00;;;;;;5009316;28;20205;-47
2024/03/30 09:54:07;;;;;;;0.00;0.00;;;20.80;48.00;;;;;;5011220;28;20543;-45
2024/03/30 09:56:45;;;;;;;0.00;0.00;;;20.80;48.00;;;;;;5030382;28;20287;-47
2024/03/30 09:59:16;;;;;;;0.00;0.00;;;20.80;48.00;;;;;;5029058;28;20305;-48
2024/03/30 10:01:46;;;;;;;0.00;0.00;;;20.80;47.90;;;;;;5026925;28;20204;-49
2024/03/30 10:04:16;;;;;;;0.00;0.00;;;20.80;47.90;;;;;;5009218;28;20212;-48
2024/03/30 10:06:51;;;;;;;0.00;0.00;;;20.80;47.90;;;;;;5010070;28;20232;-47
2024/03/30 10:09:25;;;;;;;0.00;0.00;;;20.80;47.90;;;;;;5010673;28;20204;-46
2024/03/30 10:12:05;;;;;;;0.00;0.00;;;20.80;47.90;;;;;;5010318;28;20201;-50
2024/03/30 10:14:39;;;;;;;0.00;0.00;;;20.80;47.90;;;;;;5009523;28;20232;-49
2024/03/30 10:17:11;;;;;;;0.00;0.00;;;20.80;47.80;;;;;;5009151;28;20223;-47
2024/03/30 10:19:40;;;;;;;0.05;0.05;;;20.80;47.80;;;;;;5009131;28;20208;-47
2024/03/30 10:22:11;;;;;;;0.00;0.00;;;20.80;47.80;;;;;;5009241;28;20203;-46
2024/03/30 10:24:41;;;;;;;0.00;0.00;;;20.80;47.80;;;;;;5016226;28;20204;-50
2024/03/30 10:27:13;;;;;;;0.10;0.10;;;20.80;47.80;;;;;;5014363;28;20270;-46
2024/03/30 10:29:46;;;;;;;0.00;0.00;;;20.80;47.70;;;;;;5009302;28;20204;-47
2024/03/30 10:32:17;;;;;;;0.05;0.05;;;20.80;47.70;;;;;;5008952;28;20196;-48
2024/03/30 10:34:47;;;;;;;0.10;0.10;;;20.80;47.70;;;;;;5010124;28;20232;-47
2024/03/30 10:37:17;;;;;;;0.00;0.00;;;20.70;47.60;;;;;;5009007;28;20231;-46
2024/03/30 10:39:47;;;;;;;0.00;0.00;;;20.70;47.60;;;;;;5009231;28;20205;-48
2024/03/30 10:42:20;;;;;;;0.03;0.03;;;20.70;47.60;;;;;;5009487;28;20650;-48
2024/03/30 10:44:55;;;;;;;0.00;0.00;;;20.70;47.60;;;;;;5009237;28;20212;-47
2024/03/30 10:47:26;;;;;;;0.00;0.00;;;20.70;47.60;;;;;;5008355;28;20223;-48
2024/03/30 10:49:55;;;;;;;0.00;0.00;;;20.70;47.60;;;;;;5008379;28;20201;-48
2024/03/30 10:52:26;;;;;;;0.00;0.00;;;20.70;47.60;;;;;;5008978;28;20687;-47
2024/03/30 10:54:56;;;;;;;0.00;0.00;;;20.70;47.60;;;;;;5003961;28;20919;-48
2024/03/30 10:57:29;;;;;;;0.10;0.10;;;20.70;47.60;;;;;;5008854;28;20221;-45
2024/03/30 11:00:01;;;;;;;0.10;0.10;;;20.60;47.50;;;;;;5008449;28;20256;-47
2024/03/30 11:02:33;;;;;;;0.00;0.00;;;20.70;47.50;;;;;;5008164;28;20738;-47
2024/03/30 11:05:05;;;;;;;0.00;0.00;;;20.70;47.50;;;;;;5008131;28;20479;-47
2024/03/30 11:07:39;;;;;;;0.00;0.00;;;20.70;47.50;;;;;;5008118;28;20267;-48
2024/03/30 11:10:11;;;;;;;0.00;0.00;;;20.70;47.50;;;;;;5008633;28;20680;-48
2024/03/30 11:12:46;;;;;;;0.00;0.00;;;20.70;47.50;;;;;;5007731;28;21082;-48
2024/03/30 11:15:15;;;;;;;0.03;0.03;;;20.60;47.40;;;;;;5003781;28;20309;-46
2024/03/30 11:17:49;;;;;;;0.08;0.08;;;20.60;47.40;;;;;;5007952;28;20227;-46
2024/03/30 11:20:27;;;;;;;0.10;0.10;;;20.60;47.40;;;;;;5009416;28;20199;-48
2024/03/30 11:23:05;;;;;;;0.00;0.00;;;20.60;47.40;;;;;;5009169;28;20673;-47
2024/03/30 11:25:37;;;;;;;0.10;0.10;;;20.60;47.40;;;;;;5022064;28;20638;-46
2024/03/30 11:28:18;;;;;;;0.00;0.00;;;20.60;47.40;;;;;;5016006;28;20231;-48
2024/03/30 11:30:56;;;;;;;0.00;0.00;;;20.60;47.40;;;;;;5007637;28;20290;-47
2024/03/30 11:33:32;;;;;;;0.10;0.10;;;20.60;47.40;;;;;;5007969;28;20255;-47
2024/03/30 11:36:07;;;;;;;0.10;0.10;;;20.50;47.40;;;;;;5007279;28;20219;-47
2024/03/30 11:38:40;;;;;;;0.00;0.00;;;20.50;47.40;;;;;;5008150;28;21005;-49
2024/03/30 11:41:09;;;;;;;0.00;0.00;;;20.50;47.40;;;;;;5008391;28;20201;-46
2024/03/30 11:43:55;;;;;;;0.00;0.00;;;20.50;47.40;;;;;;5008142;28;20212;-46
2024/03/30 11:46:26;;;;;;;0.10;0.10;;;20.50;47.40;;;;;;5007344;28;20664;-48
2024/03/30 11:48:57;;;;;;;0.10;0.10;;;20.50;47.40;;;;;;5008515;28;20289;-47
2024/03/30 11:51:31;;;;;;;0.00;0.00;;;20.50;47.40;;;;;;5008117;28;20208;-46
2024/03/30 11:54:01;;;;;;;0.00;0.00;;;20.50;47.40;;;;;;5007549;28;20224;-45
2024/03/30 11:56:37;;;;;;;0.00;0.00;;;20.50;47.30;;;;;;5028324;28;20199;-46
2024/03/30 11:59:11;;;;;;;0.00;0.00;;;20.50;47.40;;;;;;5028354;28;20199;-47
2024/03/30 12:01:40;;;;;;;0.10;0.10;;;20.50;47.30;;;;;;5025117;28;20196;-50
2024/03/30 12:04:13;;;;;;;0.00;0.00;;;20.50;47.30;;;;;;5007741;28;20208;-48
2024/03/30 12:06:42;;;;;;;0.10;0.10;;;20.50;47.30;;;;;;5008084;28;20299;-47
2024/03/30 12:09:14;;;;;;;0.10;0.10;;;20.50;47.30;;;;;;5007731;28;20200;-46
2024/03/30 12:11:43;;;;;;;0.00;0.00;;;20.50;47.30;;;;;;5008401;28;20283;-48
2024/03/30 12:14:19;;;;;;;0.03;0.03;;;20.50;47.30;;;;;;5007830;28;20853;-46
2024/03/30 12:16:49;;;;;;;0.00;0.00;;;20.50;47.40;;;;;;5008291;28;20221;-46
2024/03/30 12:19:19;;;;;;;0.00;0.00;;;20.40;47.30;;;;;;5007588;28;20201;-45
2024/03/30 12:21:50;;;;;;;0.10;0.10;;;20.40;47.30;;;;;;5007253;28;20668;-47
2024/03/30 12:24:20;;;;;;;0.00;0.00;;;20.40;47.40;;;;;;5010470;28;20571;-46
2024/03/30 12:26:50;;;;;;;0.10;0.10;;;20.40;47.40;;;;;;5022422;28;20224;-46
2024/03/30 12:29:23;;;;;;;0.00;0.00;;;20.40;47.40;;;;;;5008297;28;20200;-47
2024/03/30 12:31:52;;;;;;;0.00;0.00;;;20.40;47.30;;;;;;5007554;28;20727;-48
2024/03/30 12:34:24;;;;;;;0.00;0.00;;;20.40;47.30;;;;;;5007018;28;20308;-47
2024/03/30 12:36:54;;;;;;;0.05;0.05;;;20.40;47.30;;;;;;5010694;28;20292;-46
2024/03/30 12:39:25;;;;;;;0.00;0.00;;;20.40;47.20;;;;;;5010223;28;20232;-46
2024/03/30 12:41:54;;;;;;;0.00;0.00;;;20.40;47.20;;;;;;5011134;28;20324;-46
2024/03/30 12:44:27;;;;;;;0.00;0.00;;;20.40;47.20;;;;;;5011453;28;20201;-46
2024/03/30 12:46:56;;;;;;;0.10;0.10;;;20.40;47.30;;;;;;5011409;28;20249;-45
2024/03/30 12:49:34;;;;;;;0.00;0.00;;;20.40;47.20;;;;;;5011244;28;20219;-46
2024/03/30 12:52:03;;;;;;;0.00;0.00;;;20.40;47.30;;;;;;5011135;28;20220;-45
2024/03/30 12:54:36;;;;;;;0.00;0.00;;;20.40;47.30;;;;;;5003202;28;20564;-45
2024/03/30 12:57:05;;;;;;;0.00;0.00;;;20.30;47.20;;;;;;5008483;28;20299;-45
2024/03/30 12:59:39;;;;;;;0.00;0.00;;;20.30;47.20;;;;;;5010435;28;20279;-45
2024/03/30 13:02:09;;;;;;;0.00;0.00;;;20.30;47.20;;;;;;5008382;28;20677;-46
2024/03/30 13:04:41;;;;;;;0.08;0.08;;;20.30;47.20;;;;;;5010348;28;20576;-47
2024/03/30 13:07:10;;;;;;;0.10;0.10;;;20.30;47.20;;;;;;5010504;28;20205;-45
2024/03/30 13:09:42;;;;;;;0.00;0.00;;;20.30;47.30;;;;;;5010594;28;20280;-46
2024/03/30 13:12:12;;;;;;;0.00;0.00;;;20.30;47.30;;;;;;5012416;28;20311;-45
2024/03/30 13:14:44;;;;;;;0.00;0.00;;;20.30;47.30;;;;;;5013650;28;20758;-46